sensor_id;sensor_type;location;lat;lon;timestamp;pressure;altitude;pressure_sealevel;temperature;humidity
56789;BME280;42657;51.650;17.780;2023-01-24T00:04:31;102294.00;;;-0.05;88.36
56789;BME280;42657;51.650;17.780;2023-01-24T00:08:13;102294.98;;;-0.06;88.46
56789;BME280;42657;51.650;17.780;2023-01-24T00:11:55;102296.17;;;-0.04;88.44
56789;BME280;42657;51.650;17.780;2023-01-24T00:15:37;102305.40;;;0.00;88.34
56789;BME280;42657;51.650;17.780;2023-01-24T00:19:19;102304.10;;;0.01;88.35
56789;BME280;42657;51.650;17.780;2023-01-24T00:23:01;102303.88;;;0.02;88.47
56789;BME280;42657;51.650;17.780;2023-01-24T00:26:43;102302.98;;;-0.01;88.34
56789;BME280;42657;51.650;17.780;2023-01-24T00:30:26;102306.08;;;-0.06;88.57
56789;BME280;42657;51.650;17.780;2023-01-24T00:37:40;102305.63;;;-0.04;88.47
56789;BME280;42657;51.650;17.780;2023-01-24T00:41:21;102309.05;;;-0.07;88.45
56789;BME280;42657;51.650;17.780;2023-01-24T00:45:03;102313.55;;;-0.08;88.35
56789;BME280;42657;51.650;17.780;2023-01-24T00:52:01;102313.91;;;0.00;88.37
56789;BME280;42657;51.650;17.780;2023-01-24T00:56:02;102313.90;;;0.02;88.33
56789;BME280;42657;51.650;17.780;2023-01-24T00:59:09;102311.67;;;-0.01;88.44
56789;BME280;42657;51.650;17.780;2023-01-24T01:02:44;102309.54;;;-0.00;88.57
56789;BME280;42657;51.650;17.780;2023-01-24T01:06:27;102314.06;;;-0.02;88.65
56789;BME280;42657;51.650;17.780;2023-01-24T01:10:11;102314.07;;;-0.02;88.66
56789;BME280;42657;51.650;17.780;2023-01-24T01:13:54;102314.04;;;-0.04;88.60
56789;BME280;42657;51.650;17.780;2023-01-24T01:17:35;102306.59;;;-0.01;88.60
56789;BME280;42657;51.650;17.780;2023-01-24T01:21:18;102301.58;;;0.05;88.63
56789;BME280;42657;51.650;17.780;2023-01-24T01:25:00;102300.26;;;0.04;88.57
56789;BME280;42657;51.650;17.780;2023-01-24T01:32:17;102294.40;;;-0.01;88.81
56789;BME280;42657;51.650;17.780;2023-01-24T01:39:28;102291.10;;;0.02;88.56
56789;BME280;42657;51.650;17.780;2023-01-24T01:43:30;102284.17;;;0.08;88.54
56789;BME280;42657;51.650;17.780;2023-01-24T01:51:19;102280.23;;;0.15;88.54
56789;BME280;42657;51.650;17.780;2023-01-24T01:55:03;102287.23;;;0.13;88.45
56789;BME280;42657;51.650;17.780;2023-01-24T01:58:08;102288.27;;;0.12;88.54
56789;BME280;42657;51.650;17.780;2023-01-24T02:01:53;102290.30;;;0.11;88.42
56789;BME280;42657;51.650;17.780;2023-01-24T02:05:34;102289.20;;;0.11;88.51
56789;BME280;42657;51.650;17.780;2023-01-24T02:09:18;102284.15;;;0.11;88.37
56789;BME280;42657;51.650;17.780;2023-01-24T02:13:23;102281.48;;;0.12;88.42
56789;BME280;42657;51.650;17.780;2023-01-24T02:16:45;102276.10;;;0.15;88.41
56789;BME280;42657;51.650;17.780;2023-01-24T02:28:06;102269.29;;;0.23;88.41
56789;BME280;42657;51.650;17.780;2023-01-24T02:31:41;102261.67;;;0.25;88.17
56789;BME280;42657;51.650;17.780;2023-01-24T02:35:24;102260.17;;;0.24;88.04
56789;BME280;42657;51.650;17.780;2023-01-24T02:42:32;102263.40;;;0.17;88.14
56789;BME280;42657;51.650;17.780;2023-01-24T02:46:17;102265.54;;;0.15;88.11
56789;BME280;42657;51.650;17.780;2023-01-24T02:49:59;102268.90;;;0.15;88.30
56789;BME280;42657;51.650;17.780;2023-01-24T02:53:41;102265.33;;;0.19;88.22
56789;BME280;42657;51.650;17.780;2023-01-24T02:57:23;102274.27;;;0.26;88.37
56789;BME280;42657;51.650;17.780;2023-01-24T03:04:33;102277.73;;;0.23;88.09
56789;BME280;42657;51.650;17.780;2023-01-24T03:08:15;102280.48;;;0.20;88.19
56789;BME280;42657;51.650;17.780;2023-01-24T03:11:57;102275.02;;;0.18;88.21
56789;BME280;42657;51.650;17.780;2023-01-24T03:15:40;102268.77;;;0.19;88.25
56789;BME280;42657;51.650;17.780;2023-01-24T03:19:14;102270.11;;;0.20;88.28
56789;BME280;42657;51.650;17.780;2023-01-24T03:22:50;102273.45;;;0.24;88.23
56789;BME280;42657;51.650;17.780;2023-01-24T03:29:55;102275.75;;;0.20;88.06
56789;BME280;42657;51.650;17.780;2023-01-24T03:33:40;102285.23;;;0.17;88.19
56789;BME280;42657;51.650;17.780;2023-01-24T03:37:23;102288.49;;;0.15;88.16
56789;BME280;42657;51.650;17.780;2023-01-24T03:44:33;102299.47;;;0.18;88.12
56789;BME280;42657;51.650;17.780;2023-01-24T03:48:36;102299.17;;;0.22;88.04
56789;BME280;42657;51.650;17.780;2023-01-24T03:51:53;102294.36;;;0.23;88.18
56789;BME280;42657;51.650;17.780;2023-01-24T03:55:35;102292.58;;;0.21;88.13
56789;BME280;42657;51.650;17.780;2023-01-24T03:59:17;102288.77;;;0.18;88.24
56789;BME280;42657;51.650;17.780;2023-01-24T04:02:59;102290.38;;;0.20;88.10
56789;BME280;42657;51.650;17.780;2023-01-24T04:09:57;102297.84;;;0.22;88.12
56789;BME280;42657;51.650;17.780;2023-01-24T04:13:29;102305.88;;;0.25;88.12
56789;BME280;42657;51.650;17.780;2023-01-24T04:17:12;102306.36;;;0.27;88.12
56789;BME280;42657;51.650;17.780;2023-01-24T04:20:53;102305.48;;;0.27;88.18
56789;BME280;42657;51.650;17.780;2023-01-24T04:28:04;102310.21;;;0.14;88.11
56789;BME280;42657;51.650;17.780;2023-01-24T04:31:46;102317.48;;;0.15;88.23
56789;BME280;42657;51.650;17.780;2023-01-24T04:35:28;102321.65;;;0.16;88.15
56789;BME280;42657;51.650;17.780;2023-01-24T04:39:09;102321.27;;;0.12;88.00
56789;BME280;42657;51.650;17.780;2023-01-24T04:42:52;102322.39;;;0.06;88.37
56789;BME280;42657;51.650;17.780;2023-01-24T04:46:36;102315.13;;;0.02;88.39
56789;BME280;42657;51.650;17.780;2023-01-24T04:50:19;102309.70;;;0.01;88.46
56789;BME280;42657;51.650;17.780;2023-01-24T04:54:01;102311.91;;;0.04;88.30
56789;BME280;42657;51.650;17.780;2023-01-24T04:57:43;102306.48;;;0.06;88.16
56789;BME280;42657;51.650;17.780;2023-01-24T05:01:25;102305.60;;;0.08;88.28
56789;BME280;42657;51.650;17.780;2023-01-24T05:05:08;102304.60;;;0.13;88.40
56789;BME280;42657;51.650;17.780;2023-01-24T05:08:50;102307.22;;;0.13;88.24
56789;BME280;42657;51.650;17.780;2023-01-24T05:12:32;102303.31;;;0.16;88.33
56789;BME280;42657;51.650;17.780;2023-01-24T05:16:13;102307.45;;;0.17;88.13
56789;BME280;42657;51.650;17.780;2023-01-24T05:20:02;102312.90;;;0.20;88.27
56789;BME280;42657;51.650;17.780;2023-01-24T05:23:43;102316.44;;;0.19;88.20
56789;BME280;42657;51.650;17.780;2023-01-24T05:27:25;102319.16;;;0.18;88.31
56789;BME280;42657;51.650;17.780;2023-01-24T05:31:07;102317.19;;;0.21;88.16
56789;BME280;42657;51.650;17.780;2023-01-24T05:34:42;102320.05;;;0.28;88.30
56789;BME280;42657;51.650;17.780;2023-01-24T05:38:24;102318.38;;;0.29;88.14
56789;BME280;42657;51.650;17.780;2023-01-24T05:42:06;102320.05;;;0.24;87.91
56789;BME280;42657;51.650;17.780;2023-01-24T05:45:49;102319.04;;;0.24;88.06
56789;BME280;42657;51.650;17.780;2023-01-24T05:49:31;102319.70;;;0.24;88.10
56789;BME280;42657;51.650;17.780;2023-01-24T05:53:14;102324.02;;;0.21;87.98
56789;BME280;42657;51.650;17.780;2023-01-24T05:56:55;102323.20;;;0.23;88.07
56789;BME280;42657;51.650;17.780;2023-01-24T06:00:38;102327.27;;;0.23;88.15
56789;BME280;42657;51.650;17.780;2023-01-24T06:04:20;102336.98;;;0.21;88.00
56789;BME280;42657;51.650;17.780;2023-01-24T06:11:36;102337.86;;;0.19;88.16
56789;BME280;42657;51.650;17.780;2023-01-24T06:15:18;102346.02;;;0.22;88.20
56789;BME280;42657;51.650;17.780;2023-01-24T06:19:00;102351.35;;;0.28;88.07
56789;BME280;42657;51.650;17.780;2023-01-24T06:22:27;102356.14;;;0.28;87.86
56789;BME280;42657;51.650;17.780;2023-01-24T06:26:12;102355.73;;;0.23;87.89
56789;BME280;42657;51.650;17.780;2023-01-24T06:34:06;102363.22;;;0.20;88.06
56789;BME280;42657;51.650;17.780;2023-01-24T06:41:14;102369.08;;;0.27;88.03
56789;BME280;42657;51.650;17.780;2023-01-24T06:44:46;102372.27;;;0.33;88.13
56789;BME280;42657;51.650;17.780;2023-01-24T06:48:28;102375.98;;;0.35;88.00
56789;BME280;42657;51.650;17.780;2023-01-24T06:52:16;102378.39;;;0.34;88.15
56789;BME280;42657;51.650;17.780;2023-01-24T06:55:58;102385.25;;;0.37;88.05
56789;BME280;42657;51.650;17.780;2023-01-24T06:59:41;102384.80;;;0.41;88.05
56789;BME280;42657;51.650;17.780;2023-01-24T07:03:44;102387.95;;;0.48;87.92
56789;BME280;42657;51.650;17.780;2023-01-24T07:10:50;102383.70;;;0.48;87.88
56789;BME280;42657;51.650;17.780;2023-01-24T07:14:32;102387.02;;;0.46;88.05
56789;BME280;42657;51.650;17.780;2023-01-24T07:18:14;102381.09;;;0.55;87.98
56789;BME280;42657;51.650;17.780;2023-01-24T07:21:57;102384.50;;;0.63;87.92
56789;BME280;42657;51.650;17.780;2023-01-24T07:25:38;102381.35;;;0.70;87.66
56789;BME280;42657;51.650;17.780;2023-01-24T07:29:21;102379.70;;;0.69;87.76
56789;BME280;42657;51.650;17.780;2023-01-24T07:36:54;102383.41;;;0.69;87.68
56789;BME280;42657;51.650;17.780;2023-01-24T07:44:18;102382.42;;;0.80;87.60
56789;BME280;42657;51.650;17.780;2023-01-24T07:48:00;102374.11;;;0.84;87.34
56789;BME280;42657;51.650;17.780;2023-01-24T07:51:33;102375.14;;;0.90;87.35
56789;BME280;42657;51.650;17.780;2023-01-24T07:58:50;102378.91;;;1.01;87.21
56789;BME280;42657;51.650;17.780;2023-01-24T08:02:32;102378.35;;;1.05;87.02
56789;BME280;42657;51.650;17.780;2023-01-24T08:09:32;102384.09;;;1.18;86.93
56789;BME280;42657;51.650;17.780;2023-01-24T08:13:14;102395.69;;;1.15;86.42
56789;BME280;42657;51.650;17.780;2023-01-24T08:16:56;102398.90;;;1.13;86.64
56789;BME280;42657;51.650;17.780;2023-01-24T08:20:59;102401.13;;;1.19;86.77
56789;BME280;42657;51.650;17.780;2023-01-24T08:24:42;102399.29;;;1.31;86.87
56789;BME280;42657;51.650;17.780;2023-01-24T08:28:24;102396.52;;;1.40;86.68
56789;BME280;42657;51.650;17.780;2023-01-24T08:32:06;102395.52;;;1.42;86.41
56789;BME280;42657;51.650;17.780;2023-01-24T08:35:49;102397.98;;;1.49;86.53
56789;BME280;42657;51.650;17.780;2023-01-24T08:39:31;102395.73;;;1.54;86.12
56789;BME280;42657;51.650;17.780;2023-01-24T08:43:13;102398.95;;;1.62;86.00
56789;BME280;42657;51.650;17.780;2023-01-24T08:46:47;102400.14;;;1.70;85.86
56789;BME280;42657;51.650;17.780;2023-01-24T08:50:08;102403.66;;;1.82;85.81
56789;BME280;42657;51.650;17.780;2023-01-24T08:53:52;102406.20;;;1.90;85.74
56789;BME280;42657;51.650;17.780;2023-01-24T09:01:06;102417.91;;;1.92;85.34
56789;BME280;42657;51.650;17.780;2023-01-24T09:04:48;102420.52;;;1.91;85.40
56789;BME280;42657;51.650;17.780;2023-01-24T09:08:31;102424.93;;;1.98;85.18
56789;BME280;42657;51.650;17.780;2023-01-24T09:12:00;102425.34;;;2.06;85.12
56789;BME280;42657;51.650;17.780;2023-01-24T09:19:22;102424.10;;;2.20;84.91
56789;BME280;42657;51.650;17.780;2023-01-24T09:23:30;102417.42;;;2.21;84.60
56789;BME280;42657;51.650;17.780;2023-01-24T09:26:47;102421.23;;;2.13;84.33
56789;BME280;42657;51.650;17.780;2023-01-24T09:30:29;102419.23;;;2.12;84.45
56789;BME280;42657;51.650;17.780;2023-01-24T09:34:11;102420.39;;;2.18;84.47
56789;BME280;42657;51.650;17.780;2023-01-24T09:37:54;102418.58;;;2.35;84.47
56789;BME280;42657;51.650;17.780;2023-01-24T09:56:56;102417.35;;;2.62;83.42
56789;BME280;42657;51.650;17.780;2023-01-24T10:00:40;102416.13;;;2.51;83.54
56789;BME280;42657;51.650;17.780;2023-01-24T10:03:58;102414.91;;;2.44;83.17
56789;BME280;42657;51.650;17.780;2023-01-24T10:27:26;102409.75;;;2.60;83.16
56789;BME280;42657;51.650;17.780;2023-01-24T10:30:49;102410.52;;;2.71;82.81
56789;BME280;42657;51.650;17.780;2023-01-24T10:38:21;102402.91;;;2.85;82.70
56789;BME280;42657;51.650;17.780;2023-01-24T10:41:51;102403.08;;;2.88;82.58
56789;BME280;42657;51.650;17.780;2023-01-24T10:49:45;102401.16;;;2.91;81.75
56789;BME280;42657;51.650;17.780;2023-01-24T10:52:51;102401.08;;;2.92;82.35
56789;BME280;42657;51.650;17.780;2023-01-24T11:00:40;102401.45;;;2.92;81.76
56789;BME280;42657;51.650;17.780;2023-01-24T11:03:58;102402.95;;;2.86;81.46
56789;BME280;42657;51.650;17.780;2023-01-24T11:08:02;102405.31;;;2.73;81.57
56789;BME280;42657;51.650;17.780;2023-01-24T11:11:24;102404.54;;;2.57;81.54
56789;BME280;42657;51.650;17.780;2023-01-24T11:14:52;102399.31;;;2.51;82.09
56789;BME280;42657;51.650;17.780;2023-01-24T11:22:19;102392.94;;;2.56;82.37
56789;BME280;42657;51.650;17.780;2023-01-24T11:30:22;102395.40;;;2.58;82.14
56789;BME280;42657;51.650;17.780;2023-01-24T12:27:24;102347.54;;;2.27;82.43
56789;BME280;42657;51.650;17.780;2023-01-24T12:31:12;102351.38;;;2.31;82.43
56789;BME280;42657;51.650;17.780;2023-01-24T12:34:52;102351.98;;;2.38;82.50
56789;BME280;42657;51.650;17.780;2023-01-24T12:42:52;102341.15;;;2.45;82.38
56789;BME280;42657;51.650;17.780;2023-01-24T13:12:53;102337.71;;;2.76;81.97
56789;BME280;42657;51.650;17.780;2023-01-24T13:20:55;102345.31;;;2.68;81.98
56789;BME280;42657;51.650;17.780;2023-01-24T13:35:56;102340.38;;;2.53;82.21
56789;BME280;42657;51.650;17.780;2023-01-24T13:47:28;102336.88;;;2.16;82.36
56789;BME280;42657;51.650;17.780;2023-01-24T14:06:26;102336.30;;;2.08;82.79
56789;BME280;42657;51.650;17.780;2023-01-24T14:10:08;102347.70;;;2.04;82.82
56789;BME280;42657;51.650;17.780;2023-01-24T14:21:27;102343.25;;;1.85;83.23
56789;BME280;42657;51.650;17.780;2023-01-24T14:36:23;102353.04;;;1.59;83.79
56789;BME280;42657;51.650;17.780;2023-01-24T14:40:31;102357.79;;;1.59;83.87
56789;BME280;42657;51.650;17.780;2023-01-24T14:47:40;102353.30;;;1.51;83.97
56789;BME280;42657;51.650;17.780;2023-01-24T14:51:03;102347.46;;;1.41;84.15
56789;BME280;42657;51.650;17.780;2023-01-24T15:02:38;102339.95;;;1.26;84.47
56789;BME280;42657;51.650;17.780;2023-01-24T15:06:02;102342.80;;;1.26;84.64
56789;BME280;42657;51.650;17.780;2023-01-24T15:09:46;102340.29;;;1.27;84.70
56789;BME280;42657;51.650;17.780;2023-01-24T15:20:47;102341.73;;;1.20;84.73
56789;BME280;42657;51.650;17.780;2023-01-24T15:28:29;102345.60;;;1.24;84.97
56789;BME280;42657;51.650;17.780;2023-01-24T15:35:32;102345.77;;;1.17;84.97
56789;BME280;42657;51.650;17.780;2023-01-24T15:39:13;102343.66;;;1.15;85.00
56789;BME280;42657;51.650;17.780;2023-01-24T15:42:59;102345.06;;;1.17;85.06
56789;BME280;42657;51.650;17.780;2023-01-24T15:50:39;102343.55;;;1.20;85.01
56789;BME280;42657;51.650;17.780;2023-01-24T15:54:20;102341.14;;;1.21;85.09
56789;BME280;42657;51.650;17.780;2023-01-24T15:58:03;102341.73;;;1.15;85.08
56789;BME280;42657;51.650;17.780;2023-01-24T16:01:45;102344.60;;;1.10;85.04
56789;BME280;42657;51.650;17.780;2023-01-24T16:05:40;102345.63;;;1.07;85.19
56789;BME280;42657;51.650;17.780;2023-01-24T16:12:58;102345.41;;;1.03;85.10
56789;BME280;42657;51.650;17.780;2023-01-24T16:16:40;102342.98;;;0.99;85.45
56789;BME280;42657;51.650;17.780;2023-01-24T16:31:13;102328.39;;;1.02;85.36
56789;BME280;42657;51.650;17.780;2023-01-24T16:34:55;102328.03;;;1.05;85.46
56789;BME280;42657;51.650;17.780;2023-01-24T16:38:37;102325.36;;;1.06;85.47
56789;BME280;42657;51.650;17.780;2023-01-24T16:42:19;102330.52;;;1.02;85.32
56789;BME280;42657;51.650;17.780;2023-01-24T16:46:02;102331.05;;;1.02;85.44
56789;BME280;42657;51.650;17.780;2023-01-24T16:53:24;102339.10;;;1.11;85.46
56789;BME280;42657;51.650;17.780;2023-01-24T16:57:06;102341.25;;;1.12;85.27
56789;BME280;42657;51.650;17.780;2023-01-24T17:00:49;102338.30;;;1.07;85.43
56789;BME280;42657;51.650;17.780;2023-01-24T17:04:31;102338.95;;;1.04;85.33
56789;BME280;42657;51.650;17.780;2023-01-24T17:08:00;102344.71;;;0.98;85.32
56789;BME280;42657;51.650;17.780;2023-01-24T17:11:43;102343.96;;;0.96;85.55
56789;BME280;42657;51.650;17.780;2023-01-24T17:19:01;102349.91;;;0.97;85.40
56789;BME280;42657;51.650;17.780;2023-01-24T17:23:05;102353.83;;;0.97;85.72
56789;BME280;42657;51.650;17.780;2023-01-24T17:30:13;102363.30;;;0.91;85.62
56789;BME280;42657;51.650;17.780;2023-01-24T17:33:56;102363.54;;;0.91;85.68
56789;BME280;42657;51.650;17.780;2023-01-24T17:37:38;102364.45;;;0.97;85.85
56789;BME280;42657;51.650;17.780;2023-01-24T17:41:21;102369.16;;;0.99;85.79
56789;BME280;42657;51.650;17.780;2023-01-24T17:44:29;102368.08;;;0.98;85.78
56789;BME280;42657;51.650;17.780;2023-01-24T17:59:02;102364.78;;;0.99;85.75
56789;BME280;42657;51.650;17.780;2023-01-24T18:02:44;102369.11;;;0.98;85.70
56789;BME280;42657;51.650;17.780;2023-01-24T18:10:08;102365.11;;;0.99;85.81
56789;BME280;42657;51.650;17.780;2023-01-24T18:13:51;102360.65;;;1.03;85.88
56789;BME280;42657;51.650;17.780;2023-01-24T18:17:34;102359.46;;;1.05;85.53
56789;BME280;42657;51.650;17.780;2023-01-24T18:24:37;102350.30;;;1.12;85.75
56789;BME280;42657;51.650;17.780;2023-01-24T18:28:19;102348.64;;;1.18;85.74
56789;BME280;42657;51.650;17.780;2023-01-24T18:32:01;102349.17;;;1.17;85.61
56789;BME280;42657;51.650;17.780;2023-01-24T18:35:44;102345.30;;;1.16;85.63
56789;BME280;42657;51.650;17.780;2023-01-24T18:43:17;102342.14;;;1.25;85.56
56789;BME280;42657;51.650;17.780;2023-01-24T18:46:58;102339.84;;;1.27;85.24
56789;BME280;42657;51.650;17.780;2023-01-24T18:58:07;102349.36;;;1.18;85.35
56789;BME280;42657;51.650;17.780;2023-01-24T19:05:27;102354.95;;;1.15;85.34
56789;BME280;42657;51.650;17.780;2023-01-24T19:09:08;102351.62;;;1.11;85.24
56789;BME280;42657;51.650;17.780;2023-01-24T19:12:51;102355.43;;;1.12;85.39
56789;BME280;42657;51.650;17.780;2023-01-24T19:16:40;102353.58;;;1.07;85.37
56789;BME280;42657;51.650;17.780;2023-01-24T19:20:31;102346.75;;;1.04;85.45
56789;BME280;42657;51.650;17.780;2023-01-24T19:24:13;102346.51;;;0.99;85.33
56789;BME280;42657;51.650;17.780;2023-01-24T19:35:15;102343.25;;;0.94;85.45
56789;BME280;42657;51.650;17.780;2023-01-24T19:42:24;102348.27;;;0.84;85.78
56789;BME280;42657;51.650;17.780;2023-01-24T19:46:06;102350.58;;;0.84;85.93
56789;BME280;42657;51.650;17.780;2023-01-24T19:49:47;102350.23;;;0.88;85.90
56789;BME280;42657;51.650;17.780;2023-01-24T19:53:47;102345.32;;;0.87;85.76
56789;BME280;42657;51.650;17.780;2023-01-24T19:57:10;102344.23;;;0.87;85.85
56789;BME280;42657;51.650;17.780;2023-01-24T20:00:34;102354.42;;;0.88;85.81
56789;BME280;42657;51.650;17.780;2023-01-24T20:04:18;102346.73;;;0.89;85.88
56789;BME280;42657;51.650;17.780;2023-01-24T20:08:01;102345.42;;;0.90;85.95
56789;BME280;42657;51.650;17.780;2023-01-24T20:11:47;102350.08;;;0.91;85.99
56789;BME280;42657;51.650;17.780;2023-01-24T20:15:31;102345.02;;;0.96;85.98
56789;BME280;42657;51.650;17.780;2023-01-24T20:19:08;102347.04;;;1.01;85.99
56789;BME280;42657;51.650;17.780;2023-01-24T20:26:25;102351.60;;;0.96;85.77
56789;BME280;42657;51.650;17.780;2023-01-24T20:30:29;102350.54;;;0.92;86.02
56789;BME280;42657;51.650;17.780;2023-01-24T20:33:53;102351.23;;;0.92;85.79
56789;BME280;42657;51.650;17.780;2023-01-24T20:44:45;102348.20;;;0.85;86.00
56789;BME280;42657;51.650;17.780;2023-01-24T20:48:28;102352.54;;;0.82;85.88
56789;BME280;42657;51.650;17.780;2023-01-24T20:51:49;102350.05;;;0.76;86.14
56789;BME280;42657;51.650;17.780;2023-01-24T20:55:32;102344.94;;;0.74;86.16
56789;BME280;42657;51.650;17.780;2023-01-24T20:59:14;102340.76;;;0.73;86.17
56789;BME280;42657;51.650;17.780;2023-01-24T21:02:56;102342.05;;;0.80;86.19
56789;BME280;42657;51.650;17.780;2023-01-24T21:06:42;102339.77;;;0.80;86.15
56789;BME280;42657;51.650;17.780;2023-01-24T21:17:31;102334.10;;;0.76;86.24
56789;BME280;42657;51.650;17.780;2023-01-24T21:20:53;102336.77;;;0.76;86.11
56789;BME280;42657;51.650;17.780;2023-01-24T21:24:39;102338.60;;;0.80;86.26
56789;BME280;42657;51.650;17.780;2023-01-24T21:28:21;102336.27;;;0.86;86.20
56789;BME280;42657;51.650;17.780;2023-01-24T21:35:20;102347.48;;;0.81;86.18
56789;BME280;42657;51.650;17.780;2023-01-24T21:39:04;102342.17;;;0.83;86.33
56789;BME280;42657;51.650;17.780;2023-01-24T21:50:13;102336.86;;;0.85;86.25
56789;BME280;42657;51.650;17.780;2023-01-24T21:53:55;102338.36;;;0.88;86.08
56789;BME280;42657;51.650;17.780;2023-01-24T21:57:43;102348.69;;;0.82;86.27
56789;BME280;42657;51.650;17.780;2023-01-24T22:05:06;102342.89;;;0.85;86.12
56789;BME280;42657;51.650;17.780;2023-01-24T22:08:48;102341.77;;;0.85;86.22
56789;BME280;42657;51.650;17.780;2023-01-24T22:12:12;102339.73;;;0.86;86.13
56789;BME280;42657;51.650;17.780;2023-01-24T22:15:55;102333.35;;;0.79;86.07
56789;BME280;42657;51.650;17.780;2023-01-24T22:19:23;102327.41;;;0.70;86.13
56789;BME280;42657;51.650;17.780;2023-01-24T22:27:17;102326.15;;;0.72;86.40
56789;BME280;42657;51.650;17.780;2023-01-24T22:30:53;102323.08;;;0.73;86.34
56789;BME280;42657;51.650;17.780;2023-01-24T22:34:17;102323.17;;;0.75;86.36
56789;BME280;42657;51.650;17.780;2023-01-24T22:41:39;102316.09;;;0.74;86.25
56789;BME280;42657;51.650;17.780;2023-01-24T22:45:14;102322.05;;;0.67;86.18
56789;BME280;42657;51.650;17.780;2023-01-24T22:48:56;102319.18;;;0.58;86.30
56789;BME280;42657;51.650;17.780;2023-01-24T22:52:32;102316.99;;;0.54;86.32
56789;BME280;42657;51.650;17.780;2023-01-24T22:59:48;102322.52;;;0.59;86.51
56789;BME280;42657;51.650;17.780;2023-01-24T23:03:22;102324.92;;;0.62;86.51
56789;BME280;42657;51.650;17.780;2023-01-24T23:07:04;102315.41;;;0.62;86.49
56789;BME280;42657;51.650;17.780;2023-01-24T23:10:46;102310.64;;;0.56;86.41
56789;BME280;42657;51.650;17.780;2023-01-24T23:14:16;102311.76;;;0.52;86.52
56789;BME280;42657;51.650;17.780;2023-01-24T23:18:01;102307.93;;;0.51;86.38
56789;BME280;42657;51.650;17.780;2023-01-24T23:21:35;102306.05;;;0.54;86.56
56789;BME280;42657;51.650;17.780;2023-01-24T23:25:16;102302.50;;;0.56;86.43
56789;BME280;42657;51.650;17.780;2023-01-24T23:36:24;102289.02;;;0.45;86.26
56789;BME280;42657;51.650;17.780;2023-01-24T23:40:07;102288.95;;;0.36;86.38
56789;BME280;42657;51.650;17.780;2023-01-24T23:43:48;102288.24;;;0.36;86.70
56789;BME280;42657;51.650;17.780;2023-01-24T23:47:20;102283.48;;;0.40;86.42
56789;BME280;42657;51.650;17.780;2023-01-24T23:50:43;102271.98;;;0.40;86.47
56789;BME280;42657;51.650;17.780;2023-01-24T23:54:26;102264.44;;;0.43;86.77
56789;BME280;42657;51.650;17.780;2023-01-24T23:58:08;102251.96;;;0.48;86.96
